sensor_id;sensor_type;location;lat;lon;timestamp;P1;durP1;ratioP1;P2;durP2;ratioP2
76136;SDS011;68622;53.128;17.966;2024-03-25T00:00:10;13.40;;;5.60;;
76136;SDS011;68622;53.128;17.966;2024-03-25T00:03:01;18.10;;;6.40;;
76136;SDS011;68622;53.128;17.966;2024-03-25T00:05:28;13.00;;;6.40;;
76136;SDS011;68622;53.128;17.966;2024-03-25T00:07:54;15.20;;;6.30;;
76136;SDS011;68622;53.128;17.966;2024-03-25T00:10:21;13.10;;;5.60;;
76136;SDS011;68622;53.128;17.966;2024-03-25T00:12:47;14.80;;;5.50;;
76136;SDS011;68622;53.128;17.966;2024-03-25T00:15:19;16.70;;;5.80;;
76136;SDS011;68622;53.128;17.966;2024-03-25T00:17:46;14.60;;;5.90;;
76136;SDS011;68622;53.128;17.966;2024-03-25T00:20:13;13.20;;;5.60;;
76136;SDS011;68622;53.128;17.966;2024-03-25T00:22:41;13.20;;;5.90;;
76136;SDS011;68622;53.128;17.966;2024-03-25T00:25:08;12.80;;;5.90;;
76136;SDS011;68622;53.128;17.966;2024-03-25T00:27:35;12.90;;;6.10;;
76136;SDS011;68622;53.128;17.966;2024-03-25T00:30:02;11.60;;;5.60;;
76136;SDS011;68622;53.128;17.966;2024-03-25T00:32:29;11.60;;;5.70;;
76136;SDS011;68622;53.128;17.966;2024-03-25T00:34:55;12.10;;;5.00;;
76136;SDS011;68622;53.128;17.966;2024-03-25T00:37:22;13.50;;;6.40;;
76136;SDS011;68622;53.128;17.966;2024-03-25T00:39:48;11.90;;;5.50;;
76136;SDS011;68622;53.128;17.966;2024-03-25T00:42:15;13.80;;;6.40;;
76136;SDS011;68622;53.128;17.966;2024-03-25T00:44:41;12.30;;;5.50;;
76136;SDS011;68622;53.128;17.966;2024-03-25T00:47:08;11.50;;;5.10;;
76136;SDS011;68622;53.128;17.966;2024-03-25T00:49:34;13.00;;;5.70;;
76136;SDS011;68622;53.128;17.966;2024-03-25T00:52:01;11.90;;;5.90;;
76136;SDS011;68622;53.128;17.966;2024-03-25T00:54:28;12.20;;;5.00;;
76136;SDS011;68622;53.128;17.966;2024-03-25T00:56:54;12.10;;;5.70;;
76136;SDS011;68622;53.128;17.966;2024-03-25T00:59:21;13.00;;;5.70;;
76136;SDS011;68622;53.128;17.966;2024-03-25T01:01:47;15.10;;;6.60;;
76136;SDS011;68622;53.128;17.966;2024-03-25T01:04:14;14.50;;;5.80;;
76136;SDS011;68622;53.128;17.966;2024-03-25T01:06:40;13.90;;;6.50;;
76136;SDS011;68622;53.128;17.966;2024-03-25T01:09:07;13.20;;;6.50;;
76136;SDS011;68622;53.128;17.966;2024-03-25T01:11:34;14.50;;;6.20;;
76136;SDS011;68622;53.128;17.966;2024-03-25T01:14:00;13.90;;;6.70;;
76136;SDS011;68622;53.128;17.966;2024-03-25T01:16:27;15.30;;;6.20;;
76136;SDS011;68622;53.128;17.966;2024-03-25T01:18:53;14.20;;;6.60;;
76136;SDS011;68622;53.128;17.966;2024-03-25T01:21:20;15.30;;;7.00;;
76136;SDS011;68622;53.128;17.966;2024-03-25T01:23:46;16.70;;;6.70;;
76136;SDS011;68622;53.128;17.966;2024-03-25T01:26:13;16.90;;;6.80;;
76136;SDS011;68622;53.128;17.966;2024-03-25T01:28:39;14.40;;;6.60;;
76136;SDS011;68622;53.128;17.966;2024-03-25T01:31:06;13.20;;;5.90;;
76136;SDS011;68622;53.128;17.966;2024-03-25T01:33:32;13.30;;;6.50;;
76136;SDS011;68622;53.128;17.966;2024-03-25T01:35:58;16.20;;;7.30;;
76136;SDS011;68622;53.128;17.966;2024-03-25T01:38:25;15.30;;;7.20;;
76136;SDS011;68622;53.128;17.966;2024-03-25T01:40:52;15.80;;;7.90;;
76136;SDS011;68622;53.128;17.966;2024-03-25T01:43:18;16.70;;;7.70;;
76136;SDS011;68622;53.128;17.966;2024-03-25T01:45:45;15.60;;;7.30;;
76136;SDS011;68622;53.128;17.966;2024-03-25T01:48:11;14.10;;;6.40;;
76136;SDS011;68622;53.128;17.966;2024-03-25T01:50:40;15.50;;;7.50;;
76136;SDS011;68622;53.128;17.966;2024-03-25T01:53:10;16.30;;;6.80;;
76136;SDS011;68622;53.128;17.966;2024-03-25T01:55:38;14.90;;;7.40;;
76136;SDS011;68622;53.128;17.966;2024-03-25T01:58:08;18.20;;;7.10;;
76136;SDS011;68622;53.128;17.966;2024-03-25T02:00:35;16.80;;;7.90;;
76136;SDS011;68622;53.128;17.966;2024-03-25T02:03:02;14.60;;;7.30;;
76136;SDS011;68622;53.128;17.966;2024-03-25T02:05:28;14.80;;;7.00;;
76136;SDS011;68622;53.128;17.966;2024-03-25T02:07:55;13.80;;;7.50;;
76136;SDS011;68622;53.128;17.966;2024-03-25T02:10:23;15.60;;;7.50;;
76136;SDS011;68622;53.128;17.966;2024-03-25T02:12:50;15.20;;;6.80;;
76136;SDS011;68622;53.128;17.966;2024-03-25T02:15:17;15.90;;;7.10;;
76136;SDS011;68622;53.128;17.966;2024-03-25T02:17:44;16.10;;;7.50;;
76136;SDS011;68622;53.128;17.966;2024-03-25T02:20:11;17.40;;;7.40;;
76136;SDS011;68622;53.128;17.966;2024-03-25T02:22:39;17.00;;;7.30;;
76136;SDS011;68622;53.128;17.966;2024-03-25T02:25:06;15.10;;;7.60;;
76136;SDS011;68622;53.128;17.966;2024-03-25T02:27:35;15.50;;;7.20;;
76136;SDS011;68622;53.128;17.966;2024-03-25T02:30:03;14.30;;;6.60;;
76136;SDS011;68622;53.128;17.966;2024-03-25T02:32:32;17.00;;;8.10;;
76136;SDS011;68622;53.128;17.966;2024-03-25T02:34:58;13.50;;;7.10;;
76136;SDS011;68622;53.128;17.966;2024-03-25T02:37:25;14.90;;;7.20;;
76136;SDS011;68622;53.128;17.966;2024-03-25T02:39:53;16.60;;;7.00;;
76136;SDS011;68622;53.128;17.966;2024-03-25T02:45:24;17.40;;;7.50;;
76136;SDS011;68622;53.128;17.966;2024-03-25T02:47:51;15.10;;;7.40;;
76136;SDS011;68622;53.128;17.966;2024-03-25T02:50:19;13.80;;;6.80;;
76136;SDS011;68622;53.128;17.966;2024-03-25T02:52:45;15.80;;;7.30;;
76136;SDS011;68622;53.128;17.966;2024-03-25T02:55:12;16.90;;;7.40;;
76136;SDS011;68622;53.128;17.966;2024-03-25T02:57:38;14.10;;;6.50;;
76136;SDS011;68622;53.128;17.966;2024-03-25T03:00:05;15.50;;;6.60;;
76136;SDS011;68622;53.128;17.966;2024-03-25T03:02:32;17.20;;;7.40;;
76136;SDS011;68622;53.128;17.966;2024-03-25T03:04:58;17.80;;;7.70;;
76136;SDS011;68622;53.128;17.966;2024-03-25T03:07:25;16.80;;;7.80;;
76136;SDS011;68622;53.128;17.966;2024-03-25T03:09:52;16.60;;;8.10;;
76136;SDS011;68622;53.128;17.966;2024-03-25T03:12:18;15.30;;;8.00;;
76136;SDS011;68622;53.128;17.966;2024-03-25T03:14:45;19.00;;;7.50;;
76136;SDS011;68622;53.128;17.966;2024-03-25T03:17:11;17.60;;;7.60;;
76136;SDS011;68622;53.128;17.966;2024-03-25T03:19:37;15.40;;;7.40;;
76136;SDS011;68622;53.128;17.966;2024-03-25T03:22:05;17.90;;;7.70;;
76136;SDS011;68622;53.128;17.966;2024-03-25T03:24:31;18.80;;;8.10;;
76136;SDS011;68622;53.128;17.966;2024-03-25T03:26:58;19.10;;;9.00;;
76136;SDS011;68622;53.128;17.966;2024-03-25T03:29:25;16.60;;;8.70;;
76136;SDS011;68622;53.128;17.966;2024-03-25T03:31:51;17.70;;;7.40;;
76136;SDS011;68622;53.128;17.966;2024-03-25T03:34:18;17.20;;;8.00;;
76136;SDS011;68622;53.128;17.966;2024-03-25T03:36:44;20.70;;;9.50;;
76136;SDS011;68622;53.128;17.966;2024-03-25T03:39:10;18.50;;;9.10;;
76136;SDS011;68622;53.128;17.966;2024-03-25T03:41:37;19.00;;;8.80;;
76136;SDS011;68622;53.128;17.966;2024-03-25T03:44:03;16.00;;;8.60;;
76136;SDS011;68622;53.128;17.966;2024-03-25T03:46:30;18.30;;;9.20;;
76136;SDS011;68622;53.128;17.966;2024-03-25T03:48:56;19.40;;;8.40;;
76136;SDS011;68622;53.128;17.966;2024-03-25T03:51:23;17.00;;;7.80;;
76136;SDS011;68622;53.128;17.966;2024-03-25T03:53:49;16.80;;;8.60;;
76136;SDS011;68622;53.128;17.966;2024-03-25T03:56:16;16.30;;;8.00;;
76136;SDS011;68622;53.128;17.966;2024-03-25T03:58:42;18.40;;;9.20;;
76136;SDS011;68622;53.128;17.966;2024-03-25T04:01:15;16.30;;;8.50;;
76136;SDS011;68622;53.128;17.966;2024-03-25T04:03:43;19.70;;;9.20;;
76136;SDS011;68622;53.128;17.966;2024-03-25T04:06:11;20.80;;;9.00;;
76136;SDS011;68622;53.128;17.966;2024-03-25T04:08:39;14.90;;;7.80;;
76136;SDS011;68622;53.128;17.966;2024-03-25T04:11:06;25.50;;;8.30;;
76136;SDS011;68622;53.128;17.966;2024-03-25T04:13:34;15.50;;;8.00;;
76136;SDS011;68622;53.128;17.966;2024-03-25T04:16:04;16.50;;;7.80;;
76136;SDS011;68622;53.128;17.966;2024-03-25T04:18:32;16.60;;;8.50;;
76136;SDS011;68622;53.128;17.966;2024-03-25T04:20:59;14.70;;;8.00;;
76136;SDS011;68622;53.128;17.966;2024-03-25T04:23:26;18.30;;;10.20;;
76136;SDS011;68622;53.128;17.966;2024-03-25T04:25:52;21.10;;;10.40;;
76136;SDS011;68622;53.128;17.966;2024-03-25T04:28:19;19.00;;;9.60;;
76136;SDS011;68622;53.128;17.966;2024-03-25T04:30:52;17.70;;;9.10;;
76136;SDS011;68622;53.128;17.966;2024-03-25T04:33:20;18.60;;;8.70;;
76136;SDS011;68622;53.128;17.966;2024-03-25T04:35:46;18.30;;;9.30;;
76136;SDS011;68622;53.128;17.966;2024-03-25T04:38:16;16.40;;;9.00;;
76136;SDS011;68622;53.128;17.966;2024-03-25T04:40:43;16.90;;;8.60;;
76136;SDS011;68622;53.128;17.966;2024-03-25T04:43:12;16.10;;;8.40;;
76136;SDS011;68622;53.128;17.966;2024-03-25T04:45:39;18.20;;;9.30;;
76136;SDS011;68622;53.128;17.966;2024-03-25T04:48:06;16.10;;;8.40;;
76136;SDS011;68622;53.128;17.966;2024-03-25T04:50:34;15.20;;;8.10;;
76136;SDS011;68622;53.128;17.966;2024-03-25T04:53:00;15.60;;;9.20;;
76136;SDS011;68622;53.128;17.966;2024-03-25T04:55:27;19.40;;;10.40;;
76136;SDS011;68622;53.128;17.966;2024-03-25T04:57:53;21.40;;;11.60;;
76136;SDS011;68622;53.128;17.966;2024-03-25T05:00:20;20.90;;;11.20;;
76136;SDS011;68622;53.128;17.966;2024-03-25T05:02:47;16.80;;;8.80;;
76136;SDS011;68622;53.128;17.966;2024-03-25T05:05:13;17.80;;;9.60;;
76136;SDS011;68622;53.128;17.966;2024-03-25T05:07:40;17.00;;;9.90;;
76136;SDS011;68622;53.128;17.966;2024-03-25T05:10:06;17.90;;;8.90;;
76136;SDS011;68622;53.128;17.966;2024-03-25T05:12:33;16.80;;;8.50;;
76136;SDS011;68622;53.128;17.966;2024-03-25T05:15:05;17.90;;;8.40;;
76136;SDS011;68622;53.128;17.966;2024-03-25T05:17:32;18.20;;;9.70;;
76136;SDS011;68622;53.128;17.966;2024-03-25T05:19:58;21.30;;;10.50;;
76136;SDS011;68622;53.128;17.966;2024-03-25T05:22:25;20.70;;;10.00;;
76136;SDS011;68622;53.128;17.966;2024-03-25T05:24:52;18.60;;;9.90;;
76136;SDS011;68622;53.128;17.966;2024-03-25T05:27:18;19.40;;;9.40;;
76136;SDS011;68622;53.128;17.966;2024-03-25T05:29:44;18.80;;;9.90;;
76136;SDS011;68622;53.128;17.966;2024-03-25T05:32:11;18.90;;;9.70;;
76136;SDS011;68622;53.128;17.966;2024-03-25T05:34:37;17.20;;;8.90;;
76136;SDS011;68622;53.128;17.966;2024-03-25T05:37:05;12.90;;;9.20;;
76136;SDS011;68622;53.128;17.966;2024-03-25T05:39:31;20.70;;;9.60;;
76136;SDS011;68622;53.128;17.966;2024-03-25T05:41:58;18.30;;;10.20;;
76136;SDS011;68622;53.128;17.966;2024-03-25T05:44:24;17.50;;;10.70;;
76136;SDS011;68622;53.128;17.966;2024-03-25T05:46:51;18.60;;;8.30;;
76136;SDS011;68622;53.128;17.966;2024-03-25T05:49:17;16.90;;;8.80;;
76136;SDS011;68622;53.128;17.966;2024-03-25T05:51:44;18.80;;;9.20;;
76136;SDS011;68622;53.128;17.966;2024-03-25T05:54:10;17.70;;;9.00;;
76136;SDS011;68622;53.128;17.966;2024-03-25T05:56:37;16.50;;;8.10;;
76136;SDS011;68622;53.128;17.966;2024-03-25T05:59:03;16.30;;;8.00;;
76136;SDS011;68622;53.128;17.966;2024-03-25T06:01:30;17.00;;;8.70;;
76136;SDS011;68622;53.128;17.966;2024-03-25T06:03:56;15.60;;;7.80;;
76136;SDS011;68622;53.128;17.966;2024-03-25T06:06:22;15.70;;;7.70;;
76136;SDS011;68622;53.128;17.966;2024-03-25T06:08:49;16.30;;;7.70;;
76136;SDS011;68622;53.128;17.966;2024-03-25T06:11:18;18.90;;;8.50;;
76136;SDS011;68622;53.128;17.966;2024-03-25T06:13:47;20.80;;;10.00;;
76136;SDS011;68622;53.128;17.966;2024-03-25T06:16:14;18.60;;;8.50;;
76136;SDS011;68622;53.128;17.966;2024-03-25T06:18:41;16.20;;;8.40;;
76136;SDS011;68622;53.128;17.966;2024-03-25T06:21:07;16.80;;;8.10;;
76136;SDS011;68622;53.128;17.966;2024-03-25T06:23:34;15.80;;;7.90;;
76136;SDS011;68622;53.128;17.966;2024-03-25T06:26:00;25.50;;;12.30;;
76136;SDS011;68622;53.128;17.966;2024-03-25T06:28:28;27.30;;;12.70;;
76136;SDS011;68622;53.128;17.966;2024-03-25T06:30:54;23.90;;;12.20;;
76136;SDS011;68622;53.128;17.966;2024-03-25T06:33:40;23.70;;;10.10;;
76136;SDS011;68622;53.128;17.966;2024-03-25T06:36:25;20.00;;;10.10;;
76136;SDS011;68622;53.128;17.966;2024-03-25T06:38:52;19.20;;;9.90;;
76136;SDS011;68622;53.128;17.966;2024-03-25T06:41:19;20.40;;;10.00;;
76136;SDS011;68622;53.128;17.966;2024-03-25T06:43:47;17.60;;;8.90;;
76136;SDS011;68622;53.128;17.966;2024-03-25T06:46:13;20.50;;;9.30;;
76136;SDS011;68622;53.128;17.966;2024-03-25T06:48:40;20.70;;;10.50;;
76136;SDS011;68622;53.128;17.966;2024-03-25T06:51:07;20.20;;;10.50;;
76136;SDS011;68622;53.128;17.966;2024-03-25T06:53:34;21.00;;;10.20;;
76136;SDS011;68622;53.128;17.966;2024-03-25T06:56:00;31.60;;;14.50;;
76136;SDS011;68622;53.128;17.966;2024-03-25T06:58:27;32.80;;;15.20;;
76136;SDS011;68622;53.128;17.966;2024-03-25T07:00:55;41.20;;;20.90;;
76136;SDS011;68622;53.128;17.966;2024-03-25T07:03:23;34.10;;;18.40;;
76136;SDS011;68622;53.128;17.966;2024-03-25T07:05:51;27.20;;;14.50;;
76136;SDS011;68622;53.128;17.966;2024-03-25T07:08:22;19.20;;;10.10;;
76136;SDS011;68622;53.128;17.966;2024-03-25T07:10:49;16.80;;;8.80;;
76136;SDS011;68622;53.128;17.966;2024-03-25T07:13:15;17.20;;;8.40;;
76136;SDS011;68622;53.128;17.966;2024-03-25T07:15:43;20.20;;;9.80;;
76136;SDS011;68622;53.128;17.966;2024-03-25T07:18:10;16.70;;;8.20;;
76136;SDS011;68622;53.128;17.966;2024-03-25T07:20:39;20.10;;;8.60;;
76136;SDS011;68622;53.128;17.966;2024-03-25T07:23:06;18.30;;;9.00;;
76136;SDS011;68622;53.128;17.966;2024-03-25T07:25:33;17.20;;;8.50;;
76136;SDS011;68622;53.128;17.966;2024-03-25T07:28:01;19.50;;;7.90;;
76136;SDS011;68622;53.128;17.966;2024-03-25T07:30:28;14.50;;;7.90;;
76136;SDS011;68622;53.128;17.966;2024-03-25T07:32:56;15.60;;;7.20;;
76136;SDS011;68622;53.128;17.966;2024-03-25T07:35:23;14.60;;;6.90;;
76136;SDS011;68622;53.128;17.966;2024-03-25T07:37:51;17.00;;;7.80;;
76136;SDS011;68622;53.128;17.966;2024-03-25T07:40:19;19.00;;;9.10;;
76136;SDS011;68622;53.128;17.966;2024-03-25T07:42:46;17.40;;;8.50;;
76136;SDS011;68622;53.128;17.966;2024-03-25T07:45:15;17.70;;;10.10;;
76136;SDS011;68622;53.128;17.966;2024-03-25T07:47:42;17.00;;;9.20;;
76136;SDS011;68622;53.128;17.966;2024-03-25T07:50:09;16.00;;;8.50;;
76136;SDS011;68622;53.128;17.966;2024-03-25T07:52:36;16.00;;;7.20;;
76136;SDS011;68622;53.128;17.966;2024-03-25T07:55:11;13.20;;;6.90;;
76136;SDS011;68622;53.128;17.966;2024-03-25T07:57:41;9.30;;;4.90;;
76136;SDS011;68622;53.128;17.966;2024-03-25T08:00:08;38.40;;;21.10;;
76136;SDS011;68622;53.128;17.966;2024-03-25T08:02:39;43.80;;;27.90;;
76136;SDS011;68622;53.128;17.966;2024-03-25T08:05:05;22.00;;;16.20;;
76136;SDS011;68622;53.128;17.966;2024-03-25T08:07:32;12.90;;;6.70;;
76136;SDS011;68622;53.128;17.966;2024-03-25T08:09:59;24.90;;;17.70;;
76136;SDS011;68622;53.128;17.966;2024-03-25T08:12:26;8.80;;;3.80;;
76136;SDS011;68622;53.128;17.966;2024-03-25T08:14:52;19.60;;;10.80;;
76136;SDS011;68622;53.128;17.966;2024-03-25T08:17:19;21.90;;;13.30;;
76136;SDS011;68622;53.128;17.966;2024-03-25T08:19:45;75.80;;;41.40;;
76136;SDS011;68622;53.128;17.966;2024-03-25T08:22:11;18.90;;;8.00;;
76136;SDS011;68622;53.128;17.966;2024-03-25T08:24:38;54.40;;;26.70;;
76136;SDS011;68622;53.128;17.966;2024-03-25T08:27:04;47.30;;;20.40;;
76136;SDS011;68622;53.128;17.966;2024-03-25T08:29:31;20.80;;;11.20;;
76136;SDS011;68622;53.128;17.966;2024-03-25T08:31:57;18.00;;;11.00;;
76136;SDS011;68622;53.128;17.966;2024-03-25T08:34:24;16.80;;;12.40;;
76136;SDS011;68622;53.128;17.966;2024-03-25T08:36:50;13.40;;;6.40;;
76136;SDS011;68622;53.128;17.966;2024-03-25T08:39:16;10.50;;;5.80;;
76136;SDS011;68622;53.128;17.966;2024-03-25T08:41:43;11.30;;;5.60;;
76136;SDS011;68622;53.128;17.966;2024-03-25T08:44:09;14.10;;;9.20;;
76136;SDS011;68622;53.128;17.966;2024-03-25T08:46:37;11.40;;;5.30;;
76136;SDS011;68622;53.128;17.966;2024-03-25T08:49:04;11.70;;;7.20;;
76136;SDS011;68622;53.128;17.966;2024-03-25T08:51:30;10.70;;;6.20;;
76136;SDS011;68622;53.128;17.966;2024-03-25T08:53:57;9.20;;;4.60;;
76136;SDS011;68622;53.128;17.966;2024-03-25T08:56:24;10.90;;;6.30;;
76136;SDS011;68622;53.128;17.966;2024-03-25T08:58:50;10.90;;;5.30;;
76136;SDS011;68622;53.128;17.966;2024-03-25T09:01:21;8.90;;;5.30;;
76136;SDS011;68622;53.128;17.966;2024-03-25T09:03:47;10.20;;;5.10;;
76136;SDS011;68622;53.128;17.966;2024-03-25T09:06:14;12.90;;;5.90;;
76136;SDS011;68622;53.128;17.966;2024-03-25T09:08:42;9.90;;;4.70;;
76136;SDS011;68622;53.128;17.966;2024-03-25T09:11:27;9.00;;;4.40;;
76136;SDS011;68622;53.128;17.966;2024-03-25T09:13:54;10.30;;;5.10;;
76136;SDS011;68622;53.128;17.966;2024-03-25T09:16:20;32.90;;;11.30;;
76136;SDS011;68622;53.128;17.966;2024-03-25T09:18:47;16.20;;;6.60;;
76136;SDS011;68622;53.128;17.966;2024-03-25T09:21:16;13.10;;;5.70;;
76136;SDS011;68622;53.128;17.966;2024-03-25T09:23:42;11.60;;;5.70;;
76136;SDS011;68622;53.128;17.966;2024-03-25T09:26:08;12.50;;;5.70;;
76136;SDS011;68622;53.128;17.966;2024-03-25T09:28:37;9.70;;;4.90;;
76136;SDS011;68622;53.128;17.966;2024-03-25T09:31:03;10.20;;;5.50;;
76136;SDS011;68622;53.128;17.966;2024-03-25T09:33:32;12.30;;;6.30;;
76136;SDS011;68622;53.128;17.966;2024-03-25T09:36:00;14.00;;;6.60;;
76136;SDS011;68622;53.128;17.966;2024-03-25T09:38:27;13.00;;;6.60;;
76136;SDS011;68622;53.128;17.966;2024-03-25T09:40:53;15.40;;;8.20;;
76136;SDS011;68622;53.128;17.966;2024-03-25T09:43:30;13.40;;;7.10;;
76136;SDS011;68622;53.128;17.966;2024-03-25T09:46:00;11.60;;;6.00;;
76136;SDS011;68622;53.128;17.966;2024-03-25T09:48:26;10.30;;;5.80;;
76136;SDS011;68622;53.128;17.966;2024-03-25T09:50:55;12.40;;;5.50;;
76136;SDS011;68622;53.128;17.966;2024-03-25T09:53:22;12.20;;;5.90;;
76136;SDS011;68622;53.128;17.966;2024-03-25T09:55:49;12.20;;;6.00;;
76136;SDS011;68622;53.128;17.966;2024-03-25T09:58:17;11.10;;;5.60;;
76136;SDS011;68622;53.128;17.966;2024-03-25T10:00:46;11.50;;;5.70;;
76136;SDS011;68622;53.128;17.966;2024-03-25T10:03:12;11.30;;;5.80;;
76136;SDS011;68622;53.128;17.966;2024-03-25T10:05:40;11.60;;;6.40;;
76136;SDS011;68622;53.128;17.966;2024-03-25T10:08:08;11.40;;;5.40;;
76136;SDS011;68622;53.128;17.966;2024-03-25T10:10:34;12.70;;;6.40;;
76136;SDS011;68622;53.128;17.966;2024-03-25T10:13:03;14.10;;;6.10;;
76136;SDS011;68622;53.128;17.966;2024-03-25T10:15:33;18.70;;;6.30;;
76136;SDS011;68622;53.128;17.966;2024-03-25T10:17:59;12.90;;;5.30;;
76136;SDS011;68622;53.128;17.966;2024-03-25T10:20:26;12.20;;;4.80;;
76136;SDS011;68622;53.128;17.966;2024-03-25T10:22:52;9.90;;;3.40;;
76136;SDS011;68622;53.128;17.966;2024-03-25T10:25:28;6.70;;;2.20;;
76136;SDS011;68622;53.128;17.966;2024-03-25T10:27:59;13.80;;;2.90;;
76136;SDS011;68622;53.128;17.966;2024-03-25T10:30:27;8.70;;;2.70;;
76136;SDS011;68622;53.128;17.966;2024-03-25T10:33:01;4.10;;;1.20;;
76136;SDS011;68622;53.128;17.966;2024-03-25T10:35:31;5.10;;;1.40;;
76136;SDS011;68622;53.128;17.966;2024-03-25T10:38:02;6.90;;;1.90;;
76136;SDS011;68622;53.128;17.966;2024-03-25T10:40:31;5.50;;;1.20;;
76136;SDS011;68622;53.128;17.966;2024-03-25T10:43:02;7.50;;;1.90;;
76136;SDS011;68622;53.128;17.966;2024-03-25T10:45:43;5.40;;;1.90;;
76136;SDS011;68622;53.128;17.966;2024-03-25T10:48:17;5.90;;;1.80;;
76136;SDS011;68622;53.128;17.966;2024-03-25T10:50:46;4.60;;;1.50;;
76136;SDS011;68622;53.128;17.966;2024-03-25T10:53:17;8.50;;;2.50;;
76136;SDS011;68622;53.128;17.966;2024-03-25T10:55:45;10.60;;;4.20;;
76136;SDS011;68622;53.128;17.966;2024-03-25T10:58:16;8.20;;;2.70;;
76136;SDS011;68622;53.128;17.966;2024-03-25T11:00:43;6.50;;;2.40;;
76136;SDS011;68622;53.128;17.966;2024-03-25T11:03:10;5.50;;;1.60;;
76136;SDS011;68622;53.128;17.966;2024-03-25T11:05:38;8.10;;;3.30;;
76136;SDS011;68622;53.128;17.966;2024-03-25T11:08:09;13.40;;;5.50;;
76136;SDS011;68622;53.128;17.966;2024-03-25T11:13:28;16.20;;;5.80;;
76136;SDS011;68622;53.128;17.966;2024-03-25T11:15:56;17.60;;;8.70;;
76136;SDS011;68622;53.128;17.966;2024-03-25T11:18:25;13.10;;;5.70;;
76136;SDS011;68622;53.128;17.966;2024-03-25T11:21:02;12.30;;;5.90;;
76136;SDS011;68622;53.128;17.966;2024-03-25T11:23:40;15.40;;;5.30;;
76136;SDS011;68622;53.128;17.966;2024-03-25T11:29:06;10.60;;;4.80;;
76136;SDS011;68622;53.128;17.966;2024-03-25T11:31:33;13.00;;;5.60;;
76136;SDS011;68622;53.128;17.966;2024-03-25T11:34:04;10.00;;;3.20;;
76136;SDS011;68622;53.128;17.966;2024-03-25T11:36:31;8.80;;;3.20;;
76136;SDS011;68622;53.128;17.966;2024-03-25T11:38:58;8.90;;;3.00;;
76136;SDS011;68622;53.128;17.966;2024-03-25T11:41:33;9.60;;;3.30;;
76136;SDS011;68622;53.128;17.966;2024-03-25T11:44:01;7.70;;;2.70;;
76136;SDS011;68622;53.128;17.966;2024-03-25T11:46:28;6.10;;;2.30;;
76136;SDS011;68622;53.128;17.966;2024-03-25T11:48:55;7.70;;;2.40;;
76136;SDS011;68622;53.128;17.966;2024-03-25T11:51:21;7.50;;;2.40;;
76136;SDS011;68622;53.128;17.966;2024-03-25T11:53:51;9.90;;;4.60;;
76136;SDS011;68622;53.128;17.966;2024-03-25T11:56:17;10.60;;;4.60;;
76136;SDS011;68622;53.128;17.966;2024-03-25T11:58:44;9.90;;;3.10;;
76136;SDS011;68622;53.128;17.966;2024-03-25T12:01:12;9.30;;;4.20;;
76136;SDS011;68622;53.128;17.966;2024-03-25T12:03:39;6.50;;;2.50;;
76136;SDS011;68622;53.128;17.966;2024-03-25T12:06:05;9.30;;;3.50;;
76136;SDS011;68622;53.128;17.966;2024-03-25T12:08:32;10.70;;;4.70;;
76136;SDS011;68622;53.128;17.966;2024-03-25T12:11:02;62.40;;;27.00;;
76136;SDS011;68622;53.128;17.966;2024-03-25T12:13:44;30.20;;;12.80;;
76136;SDS011;68622;53.128;17.966;2024-03-25T12:16:11;21.10;;;9.90;;
76136;SDS011;68622;53.128;17.966;2024-03-25T12:18:39;21.60;;;11.40;;
76136;SDS011;68622;53.128;17.966;2024-03-25T12:21:07;19.40;;;9.50;;
76136;SDS011;68622;53.128;17.966;2024-03-25T12:23:36;15.40;;;7.30;;
76136;SDS011;68622;53.128;17.966;2024-03-25T12:26:03;9.70;;;4.60;;
76136;SDS011;68622;53.128;17.966;2024-03-25T12:28:32;8.40;;;3.50;;
76136;SDS011;68622;53.128;17.966;2024-03-25T12:31:07;8.00;;;3.50;;
76136;SDS011;68622;53.128;17.966;2024-03-25T12:33:43;8.80;;;3.40;;
76136;SDS011;68622;53.128;17.966;2024-03-25T12:36:13;6.90;;;3.00;;
76136;SDS011;68622;53.128;17.966;2024-03-25T12:38:40;5.60;;;2.20;;
76136;SDS011;68622;53.128;17.966;2024-03-25T12:41:07;5.50;;;2.20;;
76136;SDS011;68622;53.128;17.966;2024-03-25T12:43:36;6.80;;;2.20;;
76136;SDS011;68622;53.128;17.966;2024-03-25T12:46:08;6.10;;;1.80;;
76136;SDS011;68622;53.128;17.966;2024-03-25T12:48:36;6.00;;;1.40;;
76136;SDS011;68622;53.128;17.966;2024-03-25T12:51:06;4.70;;;1.50;;
76136;SDS011;68622;53.128;17.966;2024-03-25T12:53:41;5.90;;;1.90;;
76136;SDS011;68622;53.128;17.966;2024-03-25T12:56:08;4.70;;;1.50;;
76136;SDS011;68622;53.128;17.966;2024-03-25T12:58:35;6.10;;;1.60;;
76136;SDS011;68622;53.128;17.966;2024-03-25T13:01:02;6.30;;;2.00;;
76136;SDS011;68622;53.128;17.966;2024-03-25T13:03:28;7.10;;;2.20;;
76136;SDS011;68622;53.128;17.966;2024-03-25T13:05:56;6.60;;;2.10;;
76136;SDS011;68622;53.128;17.966;2024-03-25T13:08:24;7.90;;;2.40;;
76136;SDS011;68622;53.128;17.966;2024-03-25T13:10:51;7.30;;;2.70;;
76136;SDS011;68622;53.128;17.966;2024-03-25T13:13:18;7.90;;;2.30;;
76136;SDS011;68622;53.128;17.966;2024-03-25T13:15:45;6.50;;;2.30;;
76136;SDS011;68622;53.128;17.966;2024-03-25T13:18:11;6.00;;;2.10;;
76136;SDS011;68622;53.128;17.966;2024-03-25T13:20:39;6.40;;;2.70;;
76136;SDS011;68622;53.128;17.966;2024-03-25T13:23:05;7.80;;;2.80;;
76136;SDS011;68622;53.128;17.966;2024-03-25T13:25:32;8.30;;;3.00;;
76136;SDS011;68622;53.128;17.966;2024-03-25T13:27:59;7.90;;;3.50;;
76136;SDS011;68622;53.128;17.966;2024-03-25T13:30:26;10.30;;;4.10;;
76136;SDS011;68622;53.128;17.966;2024-03-25T13:32:53;10.00;;;4.10;;
76136;SDS011;68622;53.128;17.966;2024-03-25T13:35:21;8.90;;;3.30;;
76136;SDS011;68622;53.128;17.966;2024-03-25T13:37:47;9.20;;;3.70;;
76136;SDS011;68622;53.128;17.966;2024-03-25T13:40:14;7.10;;;3.30;;
76136;SDS011;68622;53.128;17.966;2024-03-25T13:42:41;8.20;;;3.70;;
76136;SDS011;68622;53.128;17.966;2024-03-25T13:45:15;8.20;;;3.80;;
76136;SDS011;68622;53.128;17.966;2024-03-25T13:47:42;9.00;;;3.70;;
76136;SDS011;68622;53.128;17.966;2024-03-25T13:50:08;8.30;;;3.60;;
76136;SDS011;68622;53.128;17.966;2024-03-25T13:52:35;9.10;;;3.90;;
76136;SDS011;68622;53.128;17.966;2024-03-25T13:55:02;9.30;;;3.90;;
76136;SDS011;68622;53.128;17.966;2024-03-25T13:57:29;8.40;;;3.50;;
76136;SDS011;68622;53.128;17.966;2024-03-25T13:59:56;7.10;;;2.70;;
76136;SDS011;68622;53.128;17.966;2024-03-25T14:02:23;6.40;;;2.70;;
76136;SDS011;68622;53.128;17.966;2024-03-25T14:04:51;6.30;;;2.70;;
76136;SDS011;68622;53.128;17.966;2024-03-25T14:07:17;5.90;;;2.40;;
76136;SDS011;68622;53.128;17.966;2024-03-25T14:09:43;5.60;;;2.00;;
76136;SDS011;68622;53.128;17.966;2024-03-25T14:12:10;7.10;;;2.60;;
76136;SDS011;68622;53.128;17.966;2024-03-25T14:14:37;6.60;;;2.80;;
76136;SDS011;68622;53.128;17.966;2024-03-25T14:17:04;8.40;;;2.90;;
76136;SDS011;68622;53.128;17.966;2024-03-25T14:19:32;5.80;;;2.20;;
76136;SDS011;68622;53.128;17.966;2024-03-25T14:21:58;7.00;;;2.50;;
76136;SDS011;68622;53.128;17.966;2024-03-25T14:24:25;6.70;;;2.50;;
76136;SDS011;68622;53.128;17.966;2024-03-25T14:26:51;7.80;;;2.30;;
76136;SDS011;68622;53.128;17.966;2024-03-25T14:29:18;13.40;;;6.20;;
76136;SDS011;68622;53.128;17.966;2024-03-25T14:31:45;7.40;;;2.60;;
76136;SDS011;68622;53.128;17.966;2024-03-25T14:34:11;5.70;;;1.90;;